G.l. 501 — WDG7669 — position and weather

sailwx.info

Track history (hours):
 
Tides and Currents Weather Stations Pressure Air Temp Water Temp Dewpoint Dewpoint Depression Visibility Wind Speed Wind Dir Waves Ship Positions

G.l. 501

Owner: Great Lakes Dredge & Dock Company, LLC, Oak Brook, IL. More information available from US FCC via Universal Licensing System and Coast Guard Vessel Documentation Center.

Last reported at 2017-Sep-29 17:01 UTC. Time now 2017-Oct-18 04:07 UTC.
Position N 40°32' W 074°01'.
Warning: this ship's position is 18 days out of date.

Length 90 m.

Type: Dredging. MMSI: 367569630.

Date/timePositionNaut miles runAvg speedWind from/ knotsBaromVisibWave heightAir tempDewpointWater temp
2017-Sep-29 17:01N 40°32' W 074°01'0 4.7
2017-Sep-29 17:00N 40°32' W 074°01'2 5.0
2017-Sep-29 16:30N 40°35' W 074°02'2 5.0
2017-Sep-29 16:00N 40°37' W 074°03'5 3.5
2017-Sep-29 14:37N 40°39' W 074°09'1 4.2
2017-Sep-29 14:29N 40°39' W 074°09'1 1.0
2017-Sep-29 13:47N 40°40' W 074°08'0 0.0
2017-Sep-29 13:20N 40°40' W 074°08'1 2.5
2017-Sep-29 12:55N 40°39' W 074°09'1 0.0
2017-Sep-27 23:24N 40°38' W 074°09'  
2017-Sep-24 14:56N 40°38' W 074°09'0 0.0
2017-Sep-24 14:26N 40°38' W 074°09'0 0.0
2017-Sep-24 13:32N 40°38' W 074°09'0 0.0
2017-Sep-24 13:26N 40°38' W 074°09'0 0.0
2017-Sep-24 12:47N 40°38' W 074°09'0 0.0
2017-Sep-24 12:20N 40°38' W 074°09'0 0.0
2017-Sep-24 07:38N 40°38' W 074°09'0 0.0
2017-Sep-24 06:26N 40°38' W 074°09'0 0.0
2017-Sep-24 05:44N 40°38' W 074°09'0 0.0
2017-Sep-24 05:20N 40°38' W 074°09'0 0.0
2017-Sep-24 04:38N 40°38' W 074°09'0 0.0
2017-Sep-24 04:20N 40°38' W 074°09'0 0.0
2017-Sep-24 03:56N 40°38' W 074°09'0 0.0
2017-Sep-24 03:29N 40°38' W 074°09'0 0.0
2017-Sep-24 02:59N 40°38' W 074°09'0 0.0
2017-Sep-24 02:29N 40°38' W 074°09'0 0.0
2017-Sep-24 01:53N 40°38' W 074°09'0 0.0
2017-Sep-22 01:59N 40°38' W 074°09'0 0.0
2017-Sep-22 01:29N 40°38' W 074°09'0 0.0
2017-Sep-22 00:47N 40°38' W 074°09'0 0.0
2017-Sep-22 00:29N 40°38' W 074°09'0 0.0
2017-Sep-21 23:59N 40°38' W 074°09'0 0.0
2017-Sep-21 22:59N 40°38' W 074°09'0 0.0
2017-Sep-21 22:29N 40°38' W 074°09'0 0.0
2017-Sep-21 21:50N 40°38' W 074°09'0 0.0
2017-Sep-21 21:26N 40°38' W 074°09'0 0.0
2017-Sep-21 20:56N 40°38' W 074°09'0 0.0
2017-Sep-21 20:26N 40°38' W 074°09'0 0.0
2017-Sep-21 19:56N 40°38' W 074°09'0 0.0
2017-Sep-21 19:26N 40°38' W 074°09'0 0.0
2017-Sep-21 18:56N 40°38' W 074°09'0 0.0
2017-Sep-21 18:26N 40°38' W 074°09'0 0.0
2017-Sep-21 17:56N 40°38' W 074°09'0 0.0
2017-Sep-21 17:26N 40°38' W 074°09'0 0.0
2017-Sep-21 16:56N 40°38' W 074°09'0 0.0
2017-Sep-21 16:26N 40°38' W 074°09'0 0.0
2017-Sep-21 15:56N 40°38' W 074°09'0 0.0
2017-Sep-21 14:26N 40°38' W 074°09'0 0.0
2017-Sep-21 13:56N 40°38' W 074°09'0 0.0
2017-Sep-21 13:14N 40°38' W 074°09'0 0.0
2017-Sep-21 12:50N 40°38' W 074°09'0 0.0
2017-Sep-21 11:50N 40°38' W 074°09'0 0.0
2017-Sep-21 11:26N 40°38' W 074°09'0 0.0
2017-Sep-21 10:50N 40°38' W 074°09'0 0.0
2017-Sep-21 10:26N 40°38' W 074°09'0 0.0
2017-Sep-21 09:56N 40°38' W 074°09'0 0.0
2017-Sep-21 09:26N 40°38' W 074°09'0 0.0
2017-Sep-21 08:56N 40°38' W 074°09'0 0.0
2017-Sep-21 08:29N 40°38' W 074°09'0 0.0
2017-Sep-21 07:59N 40°38' W 074°09'0 0.0
2017-Sep-21 07:30N 40°38' W 074°09'0 0.0
2017-Sep-21 06:48N 40°38' W 074°09'0 0.0
2017-Sep-21 06:30N 40°38' W 074°09'0 0.0
2017-Sep-21 05:48N 40°38' W 074°09'0 0.0
2017-Sep-21 05:24N 40°38' W 074°09'0 0.0
2017-Sep-21 04:54N 40°38' W 074°09'0 0.0
2017-Sep-21 04:30N 40°38' W 074°09'0 0.0
2017-Sep-21 04:00N 40°38' W 074°09'0 0.0
2017-Sep-21 03:30N 40°38' W 074°09'0 0.0
2017-Sep-21 02:00N 40°38' W 074°09'0 0.0
2017-Sep-21 01:30N 40°38' W 074°09'0 0.0
2017-Sep-20 23:54N 40°38' W 074°09'0 0.0
2017-Sep-20 23:24N 40°38' W 074°09'0 0.0
2017-Sep-20 23:00N 40°38' W 074°09'0 0.0
2017-Sep-20 22:03N 40°38' W 074°09'0 0.0
2017-Sep-20 22:00N 40°38' W 074°09'0 0.0
2017-Sep-20 21:27N 40°38' W 074°09'0 0.0
2017-Sep-20 20:57N 40°38' W 074°09'0 0.0
2017-Sep-20 20:27N 40°38' W 074°09'0 0.0
2017-Sep-20 19:57N 40°38' W 074°09'0 0.0
2017-Sep-20 19:21N 40°38' W 074°09'0 0.0
2017-Sep-20 18:45N 40°38' W 074°09'0 0.0
2017-Sep-20 18:23N 40°38' W 074°09'0 0.0
2017-Sep-20 17:50N 40°38' W 074°09'0 0.0
2017-Sep-20 17:23N 40°38' W 074°09'0 0.0
2017-Sep-20 16:59N 40°38' W 074°09'0 0.0
2017-Sep-20 16:29N 40°38' W 074°09'0 0.0
2017-Sep-20 15:50N 40°38' W 074°09'0 0.0
2017-Sep-20 15:23N 40°38' W 074°09'0 0.0
2017-Sep-20 14:59N 40°38' W 074°09'0 0.0
2017-Sep-20 13:05N 40°38' W 074°09'0 0.0
2017-Sep-20 12:17N 40°38' W 074°09'0 0.0
2017-Sep-20 11:48N 40°38' W 074°09'0 0.0
2017-Sep-20 11:09N 40°38' W 074°09'0 0.0
2017-Sep-20 10:39N 40°38' W 074°09'0 0.0
2017-Sep-20 10:15N 40°38' W 074°09'0 0.0
2017-Sep-20 08:33N 40°38' W 074°09'0 0.0
2017-Sep-20 08:27N 40°38' W 074°09'0 0.0
2017-Sep-20 07:51N 40°38' W 074°09'0 0.0
2017-Sep-20 07:27N 40°38' W 074°09'0 0.0
2017-Sep-20 06:48N 40°38' W 074°09'0 0.0
2017-Sep-20 06:26N 40°38' W 074°09'0 0.0
2017-Sep-20 05:56N 40°38' W 074°09'0 0.0
2017-Sep-20 01:08N 40°38' W 074°09'0 0.0
2017-Sep-20 00:44N 40°38' W 074°09'0 0.0
2017-Sep-20 00:29N 40°38' W 074°09'0 0.0
2017-Sep-19 22:32N 40°38' W 074°09'0 0.0
2017-Sep-19 22:20N 40°38' W 074°09'0 0.0
2017-Sep-19 21:35N 40°38' W 074°09'0 0.0
2017-Sep-19 21:14N 40°38' W 074°09'0 0.0
2017-Sep-19 20:50N 40°38' W 074°09'0 0.0
2017-Sep-19 20:29N 40°38' W 074°09'0 0.0
2017-Sep-19 19:59N 40°38' W 074°09'  
Track history (hours):
 
Tides and Currents Weather Stations Pressure Air Temp Water Temp Dewpoint Dewpoint Depression Visibility Wind Speed Wind Dir Waves Ship Positions

G.l. 501

Owner: Great Lakes Dredge & Dock Company, LLC, Oak Brook, IL. More information available from US FCC via Universal Licensing System and Coast Guard Vessel Documentation Center.

Last reported at 2017-Sep-29 17:01 UTC. Time now 2017-Oct-18 04:07 UTC.
Position N 40°32' W 074°01'.
Warning: this ship's position is 18 days out of date.

Length 90 m.

Type: Dredging. MMSI: 367569630.

Date/timePositionNaut miles runAvg speedWind from/ knotsBaromVisibWave heightAir tempDewpointWater temp
2017-Sep-29 17:01N 40°32' W 074°01'0 4.7
2017-Sep-29 17:00N 40°32' W 074°01'2 5.0
2017-Sep-29 16:30N 40°35' W 074°02'2 5.0
2017-Sep-29 16:00N 40°37' W 074°03'5 3.5
2017-Sep-29 14:37N 40°39' W 074°09'1 4.2
2017-Sep-29 14:29N 40°39' W 074°09'1 1.0
2017-Sep-29 13:47N 40°40' W 074°08'0 0.0
2017-Sep-29 13:20N 40°40' W 074°08'1 2.5
2017-Sep-29 12:55N 40°39' W 074°09'1 0.0
2017-Sep-27 23:24N 40°38' W 074°09'  
2017-Sep-24 14:56N 40°38' W 074°09'0 0.0
2017-Sep-24 14:26N 40°38' W 074°09'0 0.0
2017-Sep-24 13:32N 40°38' W 074°09'0 0.0
2017-Sep-24 13:26N 40°38' W 074°09'0 0.0
2017-Sep-24 12:47N 40°38' W 074°09'0 0.0
2017-Sep-24 12:20N 40°38' W 074°09'0 0.0
2017-Sep-24 07:38N 40°38' W 074°09'0 0.0
2017-Sep-24 06:26N 40°38' W 074°09'0 0.0
2017-Sep-24 05:44N 40°38' W 074°09'0 0.0
2017-Sep-24 05:20N 40°38' W 074°09'0 0.0
2017-Sep-24 04:38N 40°38' W 074°09'0 0.0
2017-Sep-24 04:20N 40°38' W 074°09'0 0.0
2017-Sep-24 03:56N 40°38' W 074°09'0 0.0
2017-Sep-24 03:29N 40°38' W 074°09'0 0.0
2017-Sep-24 02:59N 40°38' W 074°09'0 0.0
2017-Sep-24 02:29N 40°38' W 074°09'0 0.0
2017-Sep-24 01:53N 40°38' W 074°09'0 0.0
2017-Sep-22 01:59N 40°38' W 074°09'0 0.0
2017-Sep-22 01:29N 40°38' W 074°09'0 0.0
2017-Sep-22 00:47N 40°38' W 074°09'0 0.0
2017-Sep-22 00:29N 40°38' W 074°09'0 0.0
2017-Sep-21 23:59N 40°38' W 074°09'0 0.0
2017-Sep-21 22:59N 40°38' W 074°09'0 0.0
2017-Sep-21 22:29N 40°38' W 074°09'0 0.0
2017-Sep-21 21:50N 40°38' W 074°09'0 0.0
2017-Sep-21 21:26N 40°38' W 074°09'0 0.0
2017-Sep-21 20:56N 40°38' W 074°09'0 0.0
2017-Sep-21 20:26N 40°38' W 074°09'0 0.0
2017-Sep-21 19:56N 40°38' W 074°09'0 0.0
2017-Sep-21 19:26N 40°38' W 074°09'0 0.0
2017-Sep-21 18:56N 40°38' W 074°09'0 0.0
2017-Sep-21 18:26N 40°38' W 074°09'0 0.0
2017-Sep-21 17:56N 40°38' W 074°09'0 0.0
2017-Sep-21 17:26N 40°38' W 074°09'0 0.0
2017-Sep-21 16:56N 40°38' W 074°09'0 0.0
2017-Sep-21 16:26N 40°38' W 074°09'0 0.0
2017-Sep-21 15:56N 40°38' W 074°09'0 0.0
2017-Sep-21 14:26N 40°38' W 074°09'0 0.0
2017-Sep-21 13:56N 40°38' W 074°09'0 0.0
2017-Sep-21 13:14N 40°38' W 074°09'0 0.0
2017-Sep-21 12:50N 40°38' W 074°09'0 0.0
2017-Sep-21 11:50N 40°38' W 074°09'0 0.0
2017-Sep-21 11:26N 40°38' W 074°09'0 0.0
2017-Sep-21 10:50N 40°38' W 074°09'0 0.0
2017-Sep-21 10:26N 40°38' W 074°09'0 0.0
2017-Sep-21 09:56N 40°38' W 074°09'0 0.0
2017-Sep-21 09:26N 40°38' W 074°09'0 0.0
2017-Sep-21 08:56N 40°38' W 074°09'0 0.0
2017-Sep-21 08:29N 40°38' W 074°09'0 0.0
2017-Sep-21 07:59N 40°38' W 074°09'0 0.0
2017-Sep-21 07:30N 40°38' W 074°09'0 0.0
2017-Sep-21 06:48N 40°38' W 074°09'0 0.0
2017-Sep-21 06:30N 40°38' W 074°09'0 0.0
2017-Sep-21 05:48N 40°38' W 074°09'0 0.0
2017-Sep-21 05:24N 40°38' W 074°09'0 0.0
2017-Sep-21 04:54N 40°38' W 074°09'0 0.0
2017-Sep-21 04:30N 40°38' W 074°09'0 0.0
2017-Sep-21 04:00N 40°38' W 074°09'0 0.0
2017-Sep-21 03:30N 40°38' W 074°09'0 0.0
2017-Sep-21 02:00N 40°38' W 074°09'0 0.0
2017-Sep-21 01:30N 40°38' W 074°09'0 0.0
2017-Sep-20 23:54N 40°38' W 074°09'0 0.0
2017-Sep-20 23:24N 40°38' W 074°09'0 0.0
2017-Sep-20 23:00N 40°38' W 074°09'0 0.0
2017-Sep-20 22:03N 40°38' W 074°09'0 0.0
2017-Sep-20 22:00N 40°38' W 074°09'0 0.0
2017-Sep-20 21:27N 40°38' W 074°09'0 0.0
2017-Sep-20 20:57N 40°38' W 074°09'0 0.0
2017-Sep-20 20:27N 40°38' W 074°09'0 0.0
2017-Sep-20 19:57N 40°38' W 074°09'0 0.0
2017-Sep-20 19:21N 40°38' W 074°09'0 0.0
2017-Sep-20 18:45N 40°38' W 074°09'0 0.0
2017-Sep-20 18:23N 40°38' W 074°09'0 0.0
2017-Sep-20 17:50N 40°38' W 074°09'0 0.0
2017-Sep-20 17:23N 40°38' W 074°09'0 0.0
2017-Sep-20 16:59N 40°38' W 074°09'0 0.0
2017-Sep-20 16:29N 40°38' W 074°09'0 0.0
2017-Sep-20 15:50N 40°38' W 074°09'0 0.0
2017-Sep-20 15:23N 40°38' W 074°09'0 0.0
2017-Sep-20 14:59N 40°38' W 074°09'0 0.0
2017-Sep-20 13:05N 40°38' W 074°09'0 0.0
2017-Sep-20 12:17N 40°38' W 074°09'0 0.0
2017-Sep-20 11:48N 40°38' W 074°09'0 0.0
2017-Sep-20 11:09N 40°38' W 074°09'0 0.0
2017-Sep-20 10:39N 40°38' W 074°09'0 0.0
2017-Sep-20 10:15N 40°38' W 074°09'0 0.0
2017-Sep-20 08:33N 40°38' W 074°09'0 0.0
2017-Sep-20 08:27N 40°38' W 074°09'0 0.0
2017-Sep-20 07:51N 40°38' W 074°09'0 0.0
2017-Sep-20 07:27N 40°38' W 074°09'0 0.0
2017-Sep-20 06:48N 40°38' W 074°09'0 0.0
2017-Sep-20 06:26N 40°38' W 074°09'0 0.0
2017-Sep-20 05:56N 40°38' W 074°09'0 0.0
2017-Sep-20 01:08N 40°38' W 074°09'0 0.0
2017-Sep-20 00:44N 40°38' W 074°09'0 0.0
2017-Sep-20 00:29N 40°38' W 074°09'0 0.0
2017-Sep-19 22:32N 40°38' W 074°09'0 0.0
2017-Sep-19 22:20N 40°38' W 074°09'0 0.0
2017-Sep-19 21:35N 40°38' W 074°09'0 0.0
2017-Sep-19 21:14N 40°38' W 074°09'0 0.0
2017-Sep-19 20:50N 40°38' W 074°09'0 0.0
2017-Sep-19 20:29N 40°38' W 074°09'0 0.0
2017-Sep-19 19:59N 40°38' W 074°09'  

Dump ship's entire track history